Time;durP1;ratioP1;P1;durP2;ratioP2;P2;SDS_P1;SDS_P2;PMS_P1;PMS_P2;Temp;Humidity;BMP_temperature;BMP_pressure;BME280_temperature;BME280_humidity;BME280_pressure;Samples;Min_cycle;Max_cycle;Signal;HPM_P1;HPM_P2
2023/09/25 00:04:33;;;;;;;20.62;10.18;;;;;;;12.37;100.00;102074.35;5099104;56;1152682;-71
2023/09/25 00:09:39;;;;;;;24.67;10.48;;;;;;;12.29;100.00;102078.30;5119098;56;1145122;-71
2023/09/25 00:14:44;;;;;;;29.67;12.73;;;;;;;12.37;100.00;102078.33;5109702;56;1145355;-72
2023/09/25 00:19:50;;;;;;;34.03;12.13;;;;;;;12.42;100.00;102076.23;5142921;55;1145087;-70
2023/09/25 00:24:56;;;;;;;32.17;11.77;;;;;;;12.28;100.00;102073.94;5205481;55;1145236;-72
2023/09/25 00:30:09;;;;;;;34.57;11.10;;;;;;;12.19;100.00;102069.20;5107727;55;1145111;-72
2023/09/25 00:35:14;;;;;;;37.42;11.28;;;;;;;12.18;100.00;102066.64;5013471;55;1145041;-70
2023/09/25 00:40:24;;;;;;;36.93;12.50;;;;;;;12.22;100.00;102065.02;5066217;56;1145057;-71
2023/09/25 00:45:28;;;;;;;32.60;12.27;;;;;;;12.18;100.00;102067.49;5009577;57;1144749;-72
2023/09/25 00:50:35;;;;;;;38.40;11.00;;;;;;;12.14;100.00;102064.63;5024415;57;1145049;-72
2023/09/25 00:55:41;;;;;;;32.28;11.53;;;;;;;12.15;100.00;102070.79;4987519;56;1145055;-72
2023/09/25 01:00:47;;;;;;;42.23;11.88;;;;;;;12.15;100.00;102070.31;5038264;56;1144781;-70
2023/09/25 01:05:53;;;;;;;36.93;11.70;;;;;;;12.16;100.00;102064.08;5039901;56;1145086;-72
2023/09/25 01:10:59;;;;;;;37.67;10.13;;;;;;;12.15;100.00;102052.22;5059761;56;1145085;-72
2023/09/25 01:16:05;;;;;;;31.07;9.10;;;;;;;12.20;100.00;102058.12;5050192;56;1145024;-73
2023/09/25 01:21:11;;;;;;;27.83;8.90;;;;;;;12.18;100.00;102058.20;5052921;56;1142944;-71
2023/09/25 01:26:16;;;;;;;36.70;8.97;;;;;;;12.09;100.00;102060.06;5144766;56;1143137;-72
2023/09/25 01:31:22;;;;;;;25.67;7.50;;;;;;;12.03;100.00;102045.86;5124263;56;1143090;-72
2023/09/25 01:36:27;;;;;;;18.70;6.50;;;;;;;11.92;100.00;102057.08;5123307;56;1142997;-70
2023/09/25 01:41:33;;;;;;;15.73;5.27;;;;;;;11.55;100.00;102064.11;5103694;56;1143006;-72
2023/09/25 01:46:44;;;;;;;17.17;5.90;;;;;;;11.31;100.00;102060.18;5144626;56;1143091;-71
2023/09/25 01:51:46;;;;;;;18.15;5.92;;;;;;;11.33;100.00;102052.53;5001918;56;1142922;-69
2023/09/25 01:56:51;;;;;;;36.27;13.20;;;;;;;11.40;100.00;102046.44;5039943;56;1143231;-71
2023/09/25 02:01:58;;;;;;;53.13;21.13;;;;;;;11.46;100.00;102044.27;5059968;57;1145087;-71
2023/09/25 02:07:03;;;;;;;29.67;12.60;;;;;;;11.53;100.00;102035.52;5040078;56;1145063;-72
2023/09/25 02:12:09;;;;;;;28.83;10.07;;;;;;;11.55;100.00;102043.77;5030056;56;1145072;-71
2023/09/25 02:17:15;;;;;;;23.10;9.03;;;;;;;11.53;100.00;102040.34;4978086;57;1145199;-71
2023/09/25 02:22:22;;;;;;;19.07;7.20;;;;;;;11.48;100.00;102030.94;4958909;57;1142879;-71
2023/09/25 02:27:27;;;;;;;27.20;11.53;;;;;;;11.50;100.00;102030.39;4958848;57;1142874;-71
2023/09/25 02:32:33;;;;;;;27.55;10.03;;;;;;;11.50;100.00;102027.73;4964132;57;1154487;-72
2023/09/25 02:37:40;;;;;;;24.65;8.00;;;;;;;11.54;100.00;102026.63;4977395;55;1145025;-72
2023/09/25 02:42:46;;;;;;;20.10;7.97;;;;;;;11.53;100.00;102025.77;4958142;57;1142667;-72
2023/09/25 02:47:52;;;;;;;18.52;5.90;;;;;;;11.39;100.00;102019.09;4946480;57;1143092;-72
2023/09/25 02:52:57;;;;;;;17.53;5.80;;;;;;;11.23;100.00;102023.55;5030331;57;1142953;-72
2023/09/25 02:58:03;;;;;;;15.30;4.70;;;;;;;11.07;100.00;102012.95;5011859;57;1142971;-70
2023/09/25 03:03:08;;;;;;;9.77;4.27;;;;;;;10.98;100.00;102021.89;5101391;56;1142537;-71
2023/09/25 03:08:14;;;;;;;9.40;4.47;;;;;;;10.90;100.00;102026.27;5013421;56;1141001;-69
2023/09/25 03:13:20;;;;;;;11.17;5.37;;;;;;;10.78;100.00;102022.51;4958528;58;1140779;-70
2023/09/25 03:18:25;;;;;;;9.77;4.77;;;;;;;10.84;100.00;102015.57;4915113;57;1143049;-73
2023/09/25 03:23:33;;;;;;;9.55;4.50;;;;;;;10.89;100.00;102017.94;4912088;58;1140878;-72
2023/09/25 03:28:38;;;;;;;11.97;5.63;;;;;;;10.90;100.00;102017.00;4999439;57;1140856;-70
2023/09/25 03:33:46;;;;;;;15.38;5.37;;;;;;;10.96;100.00;102028.59;4995324;57;1142868;-72
2023/09/25 03:38:52;;;;;;;17.98;6.55;;;;;;;11.01;100.00;102021.70;4995902;57;1142976;-72
2023/09/25 03:43:58;;;;;;;9.00;5.67;;;;;;;11.09;100.00;102013.73;5015487;58;1142917;-71
2023/09/25 03:49:05;;;;;;;11.10;6.53;;;;;;;11.17;100.00;102004.88;5010038;57;1140988;-73
2023/09/25 03:54:11;;;;;;;17.27;7.30;;;;;;;11.22;100.00;101999.33;5025480;57;1142953;-71
2023/09/25 03:59:16;;;;;;;17.00;7.77;;;;;;;11.27;100.00;102007.88;5045269;57;1142788;-72
2023/09/25 04:04:22;;;;;;;15.43;7.17;;;;;;;11.31;100.00;102003.23;4993742;57;1143159;-73
2023/09/25 04:09:27;;;;;;;15.30;7.30;;;;;;;11.35;100.00;102003.45;4817663;58;1143427;-71
2023/09/25 04:14:35;;;;;;;14.03;6.47;;;;;;;11.29;100.00;102008.64;4860932;59;1143131;-72
2023/09/25 04:19:40;;;;;;;11.35;6.28;;;;;;;11.21;100.00;101997.14;5004765;57;1143184;-71
2023/09/25 04:24:46;;;;;;;10.00;5.40;;;;;;;11.15;100.00;101999.31;5034313;57;1142906;-72
2023/09/25 04:29:52;;;;;;;9.08;6.08;;;;;;;11.17;100.00;101999.58;4983213;57;1143118;-71
2023/09/25 04:34:58;;;;;;;13.13;6.85;;;;;;;11.23;100.00;101997.06;4978216;57;1140908;-72
2023/09/25 04:40:09;;;;;;;8.20;6.33;;;;;;;11.25;100.00;101993.86;4977450;57;1142962;-72
2023/09/25 04:45:12;;;;;;;14.67;5.80;;;;;;;11.24;100.00;101997.45;5020397;57;1140690;-71
2023/09/25 04:50:18;;;;;;;11.63;6.05;;;;;;;11.26;100.00;101997.75;5041043;56;1143004;-72
2023/09/25 04:55:24;;;;;;;10.73;6.07;;;;;;;11.22;100.00;101994.88;5058673;56;1143180;-73
2023/09/25 05:00:32;;;;;;;9.45;6.20;;;;;;;11.25;100.00;101999.16;5018650;57;1143128;-72
2023/09/25 05:05:37;;;;;;;11.67;6.27;;;;;;;11.27;100.00;101997.28;5045810;56;1140890;-73
2023/09/25 05:10:44;;;;;;;13.43;7.00;;;;;;;11.24;100.00;101998.30;4953971;56;1142995;-73
2023/09/25 05:15:50;;;;;;;10.60;6.08;;;;;;;11.26;100.00;102000.40;4947100;56;1143202;-72
2023/09/25 05:21:01;;;;;;;12.17;5.93;;;;;;;11.24;100.00;102002.75;5034003;55;1143218;-71
2023/09/25 05:26:03;;;;;;;13.53;7.33;;;;;;;11.34;100.00;102003.92;5039049;56;1142937;-70
2023/09/25 05:31:09;;;;;;;16.03;7.03;;;;;;;11.34;100.00;102003.92;5039199;57;1143189;-71
2023/09/25 05:36:14;;;;;;;16.63;7.27;;;;;;;11.46;100.00;101999.23;5059945;57;1142796;-70
2023/09/25 05:41:20;;;;;;;9.13;6.50;;;;;;;11.62;100.00;101993.43;5040223;57;1142959;-73
2023/09/25 05:46:26;;;;;;;11.07;6.50;;;;;;;11.92;100.00;102001.88;5039960;56;1140392;-70
2023/09/25 05:51:32;;;;;;;8.93;6.28;;;;;;;12.28;100.00;102008.09;5056149;56;1143024;-70
2023/09/25 05:56:38;;;;;;;14.90;6.90;;;;;;;12.63;100.00;102005.45;5035328;56;1147084;-71
2023/09/25 06:01:44;;;;;;;12.23;7.30;;;;;;;12.92;100.00;102010.25;4976340;57;1143105;-71
2023/09/25 06:06:49;;;;;;;9.08;6.25;;;;;;;13.17;100.00;102011.34;5033405;57;1143274;-70
2023/09/25 06:11:55;;;;;;;9.90;6.63;;;;;;;13.47;100.00;102005.84;4938922;57;1141179;-72
2023/09/25 06:17:01;;;;;;;9.53;5.83;;;;;;;13.75;100.00;102009.69;4987977;57;1140762;-71
2023/09/25 06:22:06;;;;;;;11.23;6.93;;;;;;;14.03;100.00;102017.52;5098443;56;1140719;-72
2023/09/25 06:27:12;;;;;;;8.07;6.47;;;;;;;14.26;100.00;102016.41;5111441;56;1142906;-72
2023/09/25 06:32:17;;;;;;;9.83;5.50;;;;;;;14.37;100.00;102021.34;5098612;56;1140936;-73
2023/09/25 06:37:23;;;;;;;6.20;5.07;;;;;;;14.57;100.00;102027.13;5098812;56;1141125;-70
2023/09/25 06:42:28;;;;;;;8.50;5.30;;;;;;;14.70;100.00;102027.96;5098822;56;1140968;-71
2023/09/25 06:47:34;;;;;;;10.07;6.47;;;;;;;14.84;100.00;102034.48;5134064;56;1140785;-71
2023/09/25 06:52:40;;;;;;;10.20;5.50;;;;;;;15.04;100.00;102038.39;5094020;56;1152009;-72
2023/09/25 06:57:46;;;;;;;9.13;5.43;;;;;;;15.27;100.00;102038.92;5019651;56;1142927;-70
2023/09/25 07:02:52;;;;;;;5.78;4.97;;;;;;;15.56;100.00;102036.80;5049355;56;1141244;-72
2023/09/25 07:07:59;;;;;;;5.70;4.50;;;;;;;15.78;100.00;102044.88;5036254;56;1140982;-71
2023/09/25 07:13:05;;;;;;;6.30;4.60;;;;;;;15.98;100.00;102044.72;4973521;57;1141041;-72
2023/09/25 07:18:11;;;;;;;7.07;4.00;;;;;;;16.18;100.00;102049.39;5035225;56;1140983;-70
2023/09/25 07:23:17;;;;;;;5.80;4.00;;;;;;;16.38;100.00;102057.18;5041270;56;1140974;-72
2023/09/25 07:28:23;;;;;;;10.50;4.67;;;;;;;16.66;100.00;102054.56;4959663;57;1140790;-73
2023/09/25 07:33:30;;;;;;;6.77;4.43;;;;;;;16.88;100.00;102046.55;5023709;57;1143023;-72
2023/09/25 07:38:36;;;;;;;6.03;3.20;;;;;;;17.04;100.00;102040.83;4997403;57;1140618;-71
2023/09/25 07:43:42;;;;;;;5.83;3.10;;;;;;;17.23;100.00;102038.86;5063413;56;1140796;-71
2023/09/25 07:48:48;;;;;;;5.50;3.50;;;;;;;17.48;100.00;102038.53;5051512;57;1141061;-72
2023/09/25 07:53:58;;;;;;;3.83;3.30;;;;;;;17.67;100.00;102040.58;5033698;55;1140888;-71
2023/09/25 07:59:02;;;;;;;4.97;3.43;;;;;;;17.86;100.00;102035.39;5094714;56;1140723;-70
2023/09/25 08:04:08;;;;;;;5.00;3.23;;;;;;;18.00;100.00;102036.05;5023307;56;1140860;-71
2023/09/25 08:09:13;;;;;;;5.63;3.50;;;;;;;18.23;100.00;102033.08;5064987;56;1141363;-71
2023/09/25 08:14:19;;;;;;;3.00;2.20;;;;;;;18.36;100.00;102028.85;5001717;56;1140793;-70
2023/09/25 08:19:25;;;;;;;6.97;3.37;;;;;;;18.45;100.00;102024.05;5029710;56;1140693;-71
2023/09/25 08:24:30;;;;;;;4.43;2.20;;;;;;;18.58;100.00;102025.17;5050960;56;1141181;-73
2023/09/25 08:29:36;;;;;;;6.93;3.20;;;;;;;18.74;100.00;102030.91;5044695;56;1140918;-73
2023/09/25 08:34:42;;;;;;;21.27;5.10;;;;;;;18.94;100.00;102019.77;5012326;56;1140823;-71
2023/09/25 08:39:47;;;;;;;8.30;2.77;;;;;;;19.15;100.00;102019.66;4965427;56;1142993;-72
2023/09/25 08:44:55;;;;;;;9.88;3.22;;;;;;;19.28;100.00;102015.73;5037043;56;1140944;-73
2023/09/25 08:50:00;;;;;;;2.98;2.75;;;;;;;19.42;100.00;102017.64;4979369;57;1141064;-72
2023/09/25 08:55:08;;;;;;;3.08;2.58;;;;;;;19.60;100.00;102013.31;4952738;57;1140822;-71
2023/09/25 09:00:17;;;;;;;4.25;2.95;;;;;;;19.66;100.00;102015.45;4996601;57;1140888;-72
2023/09/25 09:05:23;;;;;;;3.15;2.40;;;;;;;19.79;100.00;102010.63;4953040;56;1140833;-71
2023/09/25 09:10:35;;;;;;;6.95;2.85;;;;;;;19.87;100.00;102005.38;4994738;57;1140889;-72
2023/09/25 09:15:42;;;;;;;6.33;3.30;;;;;;;19.99;100.00;102005.60;5016353;56;1141031;-72
2023/09/25 09:20:48;;;;;;;2.70;2.17;;;;;;;20.03;100.00;102007.48;4987043;57;1141093;-71
2023/09/25 09:25:55;;;;;;;8.25;2.98;;;;;;;20.19;100.00;101997.48;5002088;56;1140798;-71
2023/09/25 09:31:05;;;;;;;9.65;3.17;;;;;;;20.30;100.00;101995.98;4971913;56;1140797;-73
2023/09/25 09:36:14;;;;;;;9.83;2.60;;;;;;;20.32;100.00;101992.13;5072979;55;1141118;-72
2023/09/25 09:41:20;;;;;;;6.00;2.83;;;;;;;20.46;100.00;101987.33;5040680;56;1140752;-71
2023/09/25 09:46:29;;;;;;;5.67;1.98;;;;;;;20.48;100.00;101984.82;5016546;56;1140880;-74
2023/09/25 09:51:35;;;;;;;4.37;1.90;;;;;;;20.71;100.00;101981.27;5032132;55;1140904;-73
2023/09/25 09:56:41;;;;;;;3.64;2.26;;;;;;;20.78;100.00;101978.31;5074069;55;1140972;-74
2023/09/25 10:01:49;;;;;;;4.00;2.30;;;;;;;20.93;100.00;101976.80;5019802;56;1140824;-73
2023/09/25 10:07:09;;;;;;;4.87;2.10;;;;;;;21.08;100.00;101969.09;5021678;56;1141188;-73
2023/09/25 10:12:10;;;;;;;3.20;2.15;;;;;;;21.18;100.00;101966.33;5085494;56;1140784;-73
2023/09/25 10:17:17;;;;;;;20.77;2.92;;;;;;;21.24;100.00;101962.53;5056424;56;1141156;-74
2023/09/25 10:22:30;;;;;;;6.47;2.67;;;;;;;21.32;100.00;101951.86;5056993;56;1143425;-74
2023/09/25 10:27:37;;;;;;;2.10;1.72;;;;;;;21.48;100.00;101949.82;4985940;57;1141257;-72
2023/09/25 10:32:52;;;;;;;3.22;2.10;;;;;;;21.51;100.00;101944.63;5034010;57;1141316;-72
2023/09/25 10:38:26;;;;;;;3.43;2.10;;;;;;;21.59;100.00;101943.34;5029162;56;1140602;-71
2023/09/25 10:43:27;;;;;;;4.28;2.17;;;;;;;21.72;100.00;101936.54;5126584;55;1140688;-72
2023/09/25 10:48:34;;;;;;;5.50;2.30;;;;;;;21.74;100.00;101937.23;5116610;56;1141044;-73
2023/09/25 10:53:40;;;;;;;4.95;2.35;;;;;;;21.88;100.00;101930.42;5136680;56;1140611;-75
2023/09/25 10:58:51;;;;;;;3.85;2.42;;;;;;;21.95;100.00;101929.30;5037089;56;1140807;-72
2023/09/25 11:03:57;;;;;;;2.97;1.97;;;;;;;22.13;100.00;101922.03;5048994;56;1140757;-75
2023/09/25 11:09:15;;;;;;;7.53;2.10;;;;;;;22.22;99.56;101917.52;5120344;56;1140816;-72
2023/09/25 11:14:17;;;;;;;2.58;2.12;;;;;;;22.29;100.00;101911.34;5145835;56;1138534;-76
2023/09/25 11:19:24;;;;;;;7.00;3.30;;;;;;;22.31;100.00;101906.60;5184853;55;1140960;-74
2023/09/25 11:24:32;;;;;;;5.10;2.98;;;;;;;22.24;94.50;101902.88;5020671;57;1141178;-73
2023/09/25 11:29:38;;;;;;;3.55;1.98;;;;;;;22.38;98.26;101900.07;5146434;56;1138867;-74
2023/09/25 11:34:44;;;;;;;2.33;2.08;;;;;;;22.37;96.40;101897.87;5060817;56;1138941;-74
2023/09/25 11:39:50;;;;;;;1.40;1.30;;;;;;;22.21;96.60;101892.42;5025831;56;1138675;-74
2023/09/25 11:44:55;;;;;;;4.45;1.95;;;;;;;22.37;97.65;101883.55;5044608;56;1138624;-72
2023/09/25 11:50:01;;;;;;;5.42;2.15;;;;;;;22.53;96.60;101886.31;5026119;56;1138640;-74
2023/09/25 11:55:11;;;;;;;6.08;1.95;;;;;;;22.66;96.54;101886.69;5010069;57;1138849;-74
2023/09/25 12:00:18;;;;;;;2.52;2.02;;;;;;;22.79;95.53;101880.84;5006543;57;1138858;-72
2023/09/25 12:05:24;;;;;;;3.40;1.87;;;;;;;22.66;94.66;101886.69;5014226;57;1138650;-74
2023/09/25 12:10:37;;;;;;;8.08;1.85;;;;;;;22.36;94.58;101888.60;5015124;57;1138618;-72
2023/09/25 12:15:37;;;;;;;4.83;1.57;;;;;;;22.20;96.17;101888.53;5024467;56;1138940;-75
2023/09/25 12:20:44;;;;;;;3.32;2.26;;;;;;;22.24;97.71;101876.43;5062176;56;1138804;-75
2023/09/25 12:25:50;;;;;;;4.53;1.98;;;;;;;22.34;95.18;101872.59;5011446;56;1138680;-74
2023/09/25 12:30:56;;;;;;;3.50;2.50;;;;;;;22.60;97.31;101864.94;5017241;57;1138866;-74
2023/09/25 12:36:03;;;;;;;3.15;1.92;;;;;;;22.90;92.69;101864.36;5119187;56;1138691;-74
2023/09/25 12:41:09;;;;;;;6.55;2.67;;;;;;;23.08;95.94;101860.13;5015521;57;1138609;-75
2023/09/25 12:46:14;;;;;;;3.67;2.72;;;;;;;23.18;90.93;101853.23;5024080;56;1138706;-73
2023/09/25 12:51:20;;;;;;;12.65;2.70;;;;;;;23.01;92.64;101862.67;4975398;57;1138624;-73
2023/09/25 12:56:25;;;;;;;3.87;2.20;;;;;;;22.91;93.57;101857.11;5037907;56;1140984;-72
2023/09/25 13:01:31;;;;;;;5.88;2.74;;;;;;;22.84;94.50;101858.77;4971655;56;1138735;-74
2023/09/25 13:06:37;;;;;;;4.55;1.90;;;;;;;22.69;92.45;101858.04;5117067;56;1138929;-74
2023/09/25 13:11:42;;;;;;;23.32;3.20;;;;;;;22.69;92.45;101858.04;5045389;56;1138706;-74
2023/09/25 13:16:48;;;;;;;8.03;4.40;;;;;;;22.56;93.74;101852.28;5099421;56;1140738;-74
2023/09/25 13:21:54;;;;;;;6.78;4.12;;;;;;;22.50;94.39;101854.78;5119345;56;1138873;-75
2023/09/25 13:26:59;;;;;;;5.33;2.45;;;;;;;22.48;95.19;101850.05;5051421;56;1138885;-73
2023/09/25 13:32:05;;;;;;;4.33;1.52;;;;;;;22.52;94.44;101840.13;5011086;57;1138794;-71
2023/09/25 13:37:11;;;;;;;2.12;1.77;;;;;;;22.58;93.21;101835.94;5018731;57;1138700;-73
2023/09/25 13:42:16;;;;;;;4.42;1.90;;;;;;;22.60;94.90;101831.23;4993214;57;1138595;-71
2023/09/25 13:47:22;;;;;;;12.58;2.50;;;;;;;22.71;95.52;101837.14;5077420;56;1138658;-73
2023/09/25 13:52:28;;;;;;;8.28;2.85;;;;;;;22.84;94.35;101830.44;4956939;57;1140996;-70
2023/09/25 13:57:37;;;;;;;1.90;1.62;;;;;;;22.75;92.43;101837.16;5015518;55;1138821;-70
2023/09/25 14:02:43;;;;;;;5.20;1.70;;;;;;;22.62;93.24;101835.92;4996365;55;1138721;-71
2023/09/25 14:07:49;;;;;;;3.65;2.15;;;;;;;22.56;94.88;101823.97;4996552;56;1138657;-72
2023/09/25 14:12:55;;;;;;;3.03;2.17;;;;;;;22.51;94.32;101820.91;5009794;56;1138650;-70
2023/09/25 14:18:01;;;;;;;10.25;2.55;;;;;;;22.44;93.81;101818.55;4987486;57;1138619;-75
2023/09/25 14:23:08;;;;;;;2.55;1.82;;;;;;;22.39;94.75;101815.50;5008443;57;1140766;-72
2023/09/25 14:28:13;;;;;;;6.58;2.00;;;;;;;22.33;94.87;101814.80;5054197;56;1138743;-74
2023/09/25 14:33:19;;;;;;;4.22;2.08;;;;;;;22.26;95.44;101811.09;5028374;57;1138940;-77
2023/09/25 14:38:24;;;;;;;5.35;2.05;;;;;;;22.22;95.54;101811.91;5131757;55;1138891;-73
2023/09/25 14:43:30;;;;;;;4.08;3.42;;;;;;;22.17;95.63;101811.55;5114248;56;1138865;-74
2023/09/25 14:48:36;;;;;;;8.15;7.12;;;;;;;22.14;95.63;101804.31;5079180;56;1139020;-74
2023/09/25 14:53:42;;;;;;;3.83;1.62;;;;;;;22.08;95.53;101798.56;5106225;55;1138618;-73
2023/09/25 14:58:47;;;;;;;5.22;1.55;;;;;;;22.03;95.99;101797.34;5015081;56;1138571;-75
2023/09/25 15:03:53;;;;;;;5.07;1.70;;;;;;;21.98;95.77;101801.86;5114585;56;1139039;-71
2023/09/25 15:08:59;;;;;;;22.80;2.83;;;;;;;21.98;95.77;101801.86;5007722;56;1138671;-71
2023/09/25 15:14:05;;;;;;;10.13;2.30;;;;;;;21.94;95.63;101803.19;5025621;56;1141102;-75
2023/09/25 15:19:10;;;;;;;5.62;1.75;;;;;;;21.91;95.48;101792.73;5038184;57;1140984;-75
2023/09/25 15:24:17;;;;;;;4.25;2.15;;;;;;;21.86;95.81;101795.05;4976374;57;1139015;-76
2023/09/25 15:29:22;;;;;;;2.55;2.35;;;;;;;21.82;96.58;101797.75;4964667;57;1138739;-72
2023/09/25 15:34:28;;;;;;;4.03;2.20;;;;;;;21.78;96.37;101790.14;5015605;55;1138901;-76
2023/09/25 15:39:34;;;;;;;2.42;1.85;;;;;;;21.73;96.29;101790.11;5033734;56;1138916;-73
2023/09/25 15:44:39;;;;;;;1.85;1.75;;;;;;;21.65;96.64;101786.05;5014772;56;1138682;-73
2023/09/25 15:49:52;;;;;;;5.37;1.90;;;;;;;21.59;96.15;101782.64;5017926;56;1139179;-72
2023/09/25 15:54:58;;;;;;;13.45;1.70;;;;;;;21.56;97.22;101775.38;4996575;56;1139002;-73
2023/09/25 16:00:06;;;;;;;5.58;1.70;;;;;;;21.52;97.64;101778.06;4935973;57;1140762;-74
2023/09/25 16:05:12;;;;;;;6.65;3.10;;;;;;;21.48;97.55;101784.27;4924208;57;1138974;-74
2023/09/25 16:10:18;;;;;;;5.03;2.25;;;;;;;21.44;98.15;101779.34;5094934;56;1139194;-71
2023/09/25 16:15:23;;;;;;;1.77;1.67;;;;;;;21.47;98.65;101773.66;4889565;58;1139347;-75
2023/09/25 16:20:29;;;;;;;6.62;1.87;;;;;;;21.46;98.90;101771.47;4930638;58;1139039;-71
2023/09/25 16:25:37;;;;;;;6.15;2.20;;;;;;;21.44;98.88;101779.34;4947632;57;1139104;-74
2023/09/25 16:30:42;;;;;;;3.40;1.82;;;;;;;21.42;99.18;101774.12;4953955;58;1138579;-74
2023/09/25 16:35:47;;;;;;;6.85;2.58;;;;;;;21.39;99.13;101772.59;5011498;57;1259393;-73
2023/09/25 16:40:53;;;;;;;23.78;3.82;;;;;;;21.34;99.62;101774.93;5006908;56;1139311;-73
2023/09/25 16:45:59;;;;;;;14.67;4.63;;;;;;;21.32;99.85;101782.31;4971257;58;1141304;-75
2023/09/25 16:51:05;;;;;;;7.62;4.78;;;;;;;21.30;100.00;101770.02;4985960;57;1140879;-74
2023/09/25 16:56:11;;;;;;;16.60;7.80;;;;;;;21.29;100.00;101769.67;5078660;56;1140790;-73
2023/09/25 17:01:17;;;;;;;15.95;9.58;;;;;;;21.24;100.00;101769.29;5022545;56;1142981;-74
2023/09/25 17:06:23;;;;;;;25.00;10.00;;;;;;;21.20;100.00;101766.09;5078557;56;1142910;-74
2023/09/25 17:11:32;;;;;;;58.17;36.93;;;;;;;21.14;100.00;101767.18;5127788;55;1145079;-73
2023/09/25 17:16:36;;;;;;;38.30;19.30;;;;;;;21.10;100.00;101763.95;4995300;57;1145396;-72
2023/09/25 17:21:41;;;;;;;24.47;12.10;;;;;;;21.05;100.00;101757.72;5014895;57;1144924;-72
2023/09/25 17:26:47;;;;;;;20.95;11.53;;;;;;;21.00;100.00;101758.68;4995656;57;1144911;-72
2023/09/25 17:31:53;;;;;;;30.80;19.07;;;;;;;20.96;100.00;101759.98;4989524;58;1145218;-74
2023/09/25 17:36:58;;;;;;;22.30;10.25;;;;;;;20.93;100.00;101758.95;5015133;57;1145020;-74
2023/09/25 17:42:04;;;;;;;7.30;3.97;;;;;;;20.89;100.00;101758.09;5078109;56;1145013;-73
2023/09/25 17:47:10;;;;;;;7.30;2.80;;;;;;;20.83;100.00;101751.98;4999351;57;1140942;-71
2023/09/25 17:52:15;;;;;;;12.37;2.70;;;;;;;20.78;100.00;101748.94;4950346;57;1140801;-73
2023/09/25 17:57:21;;;;;;;7.30;2.20;;;;;;;20.69;100.00;101750.69;5076961;56;1143168;-74
2023/09/25 18:02:26;;;;;;;4.05;2.60;;;;;;;20.62;100.00;101751.80;5077577;56;1141061;-72
2023/09/25 18:07:33;;;;;;;6.68;2.42;;;;;;;20.58;100.00;101743.72;5045589;57;1140933;-71
2023/09/25 18:12:39;;;;;;;23.67;8.13;;;;;;;20.53;100.00;101741.98;5011301;57;1140743;-73
2023/09/25 18:17:44;;;;;;;20.15;8.98;;;;;;;20.48;100.00;101750.99;5004506;57;1142843;-74
2023/09/25 18:22:51;;;;;;;29.32;14.68;;;;;;;20.40;100.00;101741.52;5088366;56;1143194;-74
2023/09/25 18:27:58;;;;;;;30.68;17.60;;;;;;;20.37;100.00;101747.20;5063255;55;1145214;-72
2023/09/25 18:33:08;;;;;;;53.75;25.90;;;;;;;20.40;100.00;101746.05;5070470;56;1144908;-74
2023/09/25 18:38:10;;;;;;;18.20;9.53;;;;;;;20.43;100.00;101741.72;5043905;56;1145191;-74
2023/09/25 18:43:16;;;;;;;14.43;8.08;;;;;;;20.42;100.00;101740.88;5023064;56;1142693;-71
2023/09/25 18:48:22;;;;;;;14.63;6.62;;;;;;;20.41;100.00;101739.19;5010968;56;1143037;-74
2023/09/25 18:53:27;;;;;;;17.52;7.03;;;;;;;20.42;100.00;101737.34;5021572;57;1143027;-74
2023/09/25 18:58:33;;;;;;;10.98;7.20;;;;;;;20.45;100.00;101738.38;4974029;56;1142768;-74
2023/09/25 19:03:38;;;;;;;12.35;7.67;;;;;;;20.46;100.00;101742.27;4963992;57;1143017;-73
2023/09/25 19:08:44;;;;;;;11.73;6.67;;;;;;;20.44;100.00;101740.72;4997511;57;1143006;-74
2023/09/25 19:13:49;;;;;;;16.05;6.55;;;;;;;20.41;100.00;101749.09;4956068;57;1142866;-73
2023/09/25 19:18:58;;;;;;;9.28;5.12;;;;;;;20.40;100.00;101763.02;5014381;57;1143041;-72
2023/09/25 19:24:05;;;;;;;15.25;5.83;;;;;;;20.37;100.00;101751.23;4930521;57;1141072;-71
2023/09/25 19:29:11;;;;;;;16.48;5.92;;;;;;;20.32;100.00;101751.64;4924625;58;1143122;-73
2023/09/25 19:34:17;;;;;;;14.53;4.37;;;;;;;20.29;100.00;101749.78;5105427;56;1143123;-71
2023/09/25 19:39:23;;;;;;;13.00;4.12;;;;;;;20.23;100.00;101741.82;5084183;56;1142916;-72
2023/09/25 19:44:29;;;;;;;8.78;4.40;;;;;;;20.20;100.00;101752.02;5081715;56;1143091;-72
2023/09/25 19:49:34;;;;;;;11.18;4.30;;;;;;;20.17;100.00;101746.94;5056258;55;1141107;-72
2023/09/25 19:54:41;;;;;;;11.88;4.72;;;;;;;20.14;100.00;101748.12;5077860;56;1142877;-72
2023/09/25 19:59:47;;;;;;;15.13;4.85;;;;;;;20.09;100.00;101750.40;5060755;56;1142847;-73
2023/09/25 20:04:52;;;;;;;13.20;4.80;;;;;;;20.05;100.00;101755.72;4915157;57;1143917;-71
2023/09/25 20:09:58;;;;;;;8.40;4.15;;;;;;;20.05;100.00;101754.88;5041709;56;1143249;-71
2023/09/25 20:15:04;;;;;;;5.30;3.83;;;;;;;20.04;100.00;101752.68;5025172;56;1140851;-71
2023/09/25 20:20:10;;;;;;;8.70;3.83;;;;;;;20.06;100.00;101757.41;5082417;56;1141170;-72
2023/09/25 20:25:17;;;;;;;9.90;4.10;;;;;;;20.07;100.00;101755.56;5182718;55;1140850;-73
2023/09/25 20:30:23;;;;;;;10.23;3.62;;;;;;;20.07;100.00;101741.64;5168224;55;1141036;-71
2023/09/25 20:35:29;;;;;;;9.45;4.10;;;;;;;20.03;100.00;101749.15;5182024;55;1143055;-72
2023/09/25 20:40:35;;;;;;;10.23;4.23;;;;;;;19.95;100.00;101736.98;5150567;55;1141916;-72
2023/09/25 20:45:40;;;;;;;10.62;4.24;;;;;;;19.89;100.00;101749.66;5099013;56;1142881;-72
2023/09/25 20:50:46;;;;;;;8.95;4.53;;;;;;;19.83;100.00;101752.95;5097220;56;1143068;-73
2023/09/25 20:55:51;;;;;;;11.90;4.60;;;;;;;19.80;100.00;101754.59;4970298;56;1140537;-72
2023/09/25 21:00:57;;;;;;;5.77;4.10;;;;;;;19.76;100.00;101747.82;5107696;56;1142936;-71
2023/09/25 21:06:03;;;;;;;8.05;3.72;;;;;;;19.74;100.00;101751.14;5087752;56;1141043;-72
2023/09/25 21:11:08;;;;;;;13.47;4.07;;;;;;;19.68;100.00;101748.23;5005506;57;1140897;-72
2023/09/25 21:16:14;;;;;;;8.03;3.75;;;;;;;19.62;100.00;101755.02;5020149;57;1142914;-71
2023/09/25 21:21:19;;;;;;;9.35;3.83;;;;;;;19.54;100.00;101758.95;5002885;57;1140858;-73
2023/09/25 21:26:25;;;;;;;4.40;3.50;;;;;;;19.52;100.00;101756.91;4998454;57;1141046;-71
2023/09/25 21:31:30;;;;;;;6.35;3.58;;;;;;;19.52;100.00;101760.94;4967631;57;1141087;-72
2023/09/25 21:36:36;;;;;;;11.28;3.98;;;;;;;19.51;100.00;101758.74;5026293;56;1141066;-72
2023/09/25 21:41:42;;;;;;;16.80;4.47;;;;;;;19.54;100.00;101757.61;5000975;56;1142903;-73
2023/09/25 21:46:48;;;;;;;9.85;4.12;;;;;;;19.51;100.00;101760.09;4924335;58;1143526;-71
2023/09/25 21:51:53;;;;;;;4.92;3.95;;;;;;;19.50;100.00;101765.59;5055697;56;1140984;-71
2023/09/25 21:56:59;;;;;;;4.67;3.20;;;;;;;19.44;100.00;101758.94;5089153;56;1140818;-72
2023/09/25 22:02:06;;;;;;;7.47;4.25;;;;;;;19.42;100.00;101764.94;4900725;58;1140920;-72
2023/09/25 22:07:11;;;;;;;8.05;3.30;;;;;;;19.43;100.00;101754.55;5016425;57;1140834;-72
2023/09/25 22:12:17;;;;;;;5.17;3.75;;;;;;;19.44;100.00;101762.95;4950563;57;1141650;-72
2023/09/25 22:17:23;;;;;;;5.70;3.62;;;;;;;19.43;100.00;101756.39;5029034;57;1141035;-71
2023/09/25 22:22:29;;;;;;;4.35;3.62;;;;;;;19.37;100.00;101748.45;5029610;57;1140925;-71
2023/09/25 22:27:35;;;;;;;16.60;6.30;;;;;;;19.36;100.00;101753.96;5049734;57;1141102;-71
2023/09/25 22:32:41;;;;;;;9.70;3.92;;;;;;;19.32;100.00;101744.86;5016882;57;1143036;-72
2023/09/25 22:38:08;;;;;;;7.30;3.87;;;;;;;19.29;100.00;101745.14;5024908;57;1141659;-72
2023/09/25 22:43:15;;;;;;;10.93;3.52;;;;;;;19.26;100.00;101740.06;4996699;56;1140977;-71
2023/09/25 22:48:21;;;;;;;6.12;3.20;;;;;;;19.20;100.00;101740.66;5033200;56;1142903;-72
2023/09/25 22:53:26;;;;;;;5.33;3.07;;;;;;;19.16;100.00;101737.06;5084775;56;1140975;-71